Time;durP1;ratioP1;P1;durP2;ratioP2;P2;SDS_P1;SDS_P2;PMS_P1;PMS_P2;Temp;Humidity;BMP_temperature;BMP_pressure;BME280_temperature;BME280_humidity;BME280_pressure;Samples;Min_cycle;Max_cycle;Signal;HPM_P1;HPM_P2
2023/06/29 00:00:11;;;;;;;1.47;0.90;;;21.80;94.00;;;;;;4987450;28;20438;-86
2023/06/29 00:02:38;;;;;;;1.50;0.90;;;21.80;94.10;;;;;;5000126;28;20497;-87
2023/06/29 00:05:06;;;;;;;1.47;0.90;;;21.80;93.80;;;;;;4998055;28;20466;-86
2023/06/29 00:07:33;;;;;;;1.47;0.90;;;21.80;93.80;;;;;;5003457;28;20454;-87
2023/06/29 00:10:00;;;;;;;1.47;0.90;;;21.80;93.90;;;;;;4999805;28;20536;-87
2023/06/29 00:12:27;;;;;;;1.43;0.90;;;21.80;93.80;;;;;;5002614;28;20465;-87
2023/06/29 00:14:55;;;;;;;1.40;0.90;;;21.80;93.60;;;;;;4979583;28;20849;-86
2023/06/29 00:17:23;;;;;;;1.47;0.90;;;21.80;93.70;;;;;;4977373;28;21019;-85
2023/06/29 00:19:50;;;;;;;4.80;2.93;;;21.80;93.90;;;;;;4981985;28;20532;-85
2023/06/29 00:22:17;;;;;;;1.50;0.90;;;21.70;93.80;;;;;;4979590;28;20462;-85
2023/06/29 00:24:44;;;;;;;1.43;0.90;;;21.70;94.20;;;;;;4981724;28;20488;-85
2023/06/29 00:27:13;;;;;;;1.50;0.80;;;21.70;94.30;;;;;;4971518;28;20464;-85
2023/06/29 00:29:43;;;;;;;1.40;0.90;;;21.60;94.20;;;;;;4980049;28;20456;-85
2023/06/29 00:32:11;;;;;;;1.50;0.90;;;21.60;94.80;;;;;;4976990;28;20462;-85
2023/06/29 00:34:38;;;;;;;1.50;0.90;;;21.60;94.60;;;;;;4979169;28;20458;-86
2023/06/29 00:37:05;;;;;;;1.50;0.90;;;21.60;94.70;;;;;;4975260;28;20465;-85
2023/06/29 00:39:32;;;;;;;1.50;0.90;;;21.60;94.70;;;;;;4975967;28;20466;-85
2023/06/29 00:41:59;;;;;;;1.43;0.90;;;21.60;94.80;;;;;;4977472;28;20471;-86
2023/06/29 00:44:26;;;;;;;1.63;1.47;;;21.50;94.50;;;;;;4977723;28;20976;-85
2023/06/29 00:46:54;;;;;;;1.50;0.90;;;21.60;94.90;;;;;;4976608;28;20465;-85
2023/06/29 00:49:23;;;;;;;1.50;0.90;;;21.60;94.90;;;;;;4974775;28;20485;-86
2023/06/29 00:51:52;;;;;;;1.47;0.90;;;21.50;95.00;;;;;;4977301;28;20465;-85
2023/06/29 00:54:19;;;;;;;1.50;0.90;;;21.50;94.80;;;;;;4976523;28;20481;-85
2023/06/29 00:56:46;;;;;;;1.50;1.00;;;21.50;94.80;;;;;;4975887;28;20760;-85
2023/06/29 00:59:13;;;;;;;1.50;0.90;;;21.50;95.10;;;;;;4978070;28;20481;-85
2023/06/29 01:01:41;;;;;;;1.50;0.90;;;21.50;95.20;;;;;;4981308;28;20508;-85
2023/06/29 01:04:09;;;;;;;1.50;0.90;;;21.50;94.80;;;;;;4977101;28;20489;-85
2023/06/29 01:06:44;;;;;;;1.43;0.90;;;21.50;95.10;;;;;;4978417;28;20477;-86
2023/06/29 01:09:12;;;;;;;1.47;0.90;;;21.50;95.20;;;;;;4977384;28;20508;-86
2023/06/29 01:11:39;;;;;;;1.50;0.90;;;21.50;95.50;;;;;;4980678;28;20902;-86
2023/06/29 01:14:10;;;;;;;1.47;1.00;;;21.40;95.60;;;;;;4977475;28;20483;-85
2023/06/29 01:16:38;;;;;;;1.50;1.00;;;21.40;95.60;;;;;;4975152;28;20465;-86
2023/06/29 01:19:08;;;;;;;1.47;0.90;;;21.40;95.80;;;;;;4977561;28;21054;-84
2023/06/29 01:21:42;;;;;;;1.47;0.90;;;21.40;96.00;;;;;;4981765;28;20472;-85
2023/06/29 01:24:09;;;;;;;1.47;0.90;;;21.30;96.40;;;;;;4975509;28;20481;-85
2023/06/29 01:26:38;;;;;;;1.47;0.90;;;21.30;96.30;;;;;;4978189;28;20924;-85
2023/06/29 01:29:05;;;;;;;1.47;0.90;;;21.30;96.30;;;;;;4981587;28;20999;-85
2023/06/29 01:31:32;;;;;;;1.50;0.90;;;21.30;96.00;;;;;;4980326;28;20462;-85
2023/06/29 01:33:59;;;;;;;1.47;0.90;;;21.30;96.30;;;;;;4977724;28;20805;-86
2023/06/29 01:36:31;;;;;;;1.47;0.90;;;21.30;96.40;;;;;;4981632;28;20465;-86
2023/06/29 01:39:03;;;;;;;1.50;0.90;;;21.20;96.50;;;;;;4979441;28;20485;-85
2023/06/29 01:41:33;;;;;;;1.47;0.90;;;21.20;96.50;;;;;;4982440;28;20461;-85
2023/06/29 01:44:03;;;;;;;1.43;0.90;;;21.20;96.80;;;;;;4968889;28;20553;-85
2023/06/29 01:46:30;;;;;;;1.50;0.90;;;21.20;96.60;;;;;;4969125;28;20466;-85
2023/06/29 01:48:57;;;;;;;1.50;0.93;;;21.20;97.00;;;;;;4969989;28;20549;-85
2023/06/29 01:51:24;;;;;;;1.47;0.90;;;21.10;97.20;;;;;;4966835;28;20462;-85
2023/06/29 01:53:51;;;;;;;1.47;0.90;;;21.10;97.50;;;;;;4966828;28;20482;-85
2023/06/29 01:56:18;;;;;;;1.50;0.90;;;21.10;97.70;;;;;;4962605;28;20554;-86
2023/06/29 01:58:45;;;;;;;1.50;1.00;;;21.10;97.00;;;;;;4968055;28;20493;-85
2023/06/29 02:01:13;;;;;;;1.50;0.90;;;21.10;97.60;;;;;;4971719;28;20961;-85
2023/06/29 02:03:40;;;;;;;1.50;1.00;;;21.10;97.50;;;;;;4967295;28;20762;-85
2023/06/29 02:06:07;;;;;;;1.43;0.90;;;21.10;97.40;;;;;;4968567;28;20482;-86
2023/06/29 02:08:34;;;;;;;1.43;0.90;;;21.10;97.50;;;;;;4967031;28;20465;-86
2023/06/29 02:11:01;;;;;;;1.43;0.90;;;21.10;97.60;;;;;;4966027;28;20472;-86
2023/06/29 02:13:28;;;;;;;1.47;0.90;;;21.10;97.70;;;;;;4965082;28;21005;-85
2023/06/29 02:15:55;;;;;;;1.47;0.90;;;21.10;98.00;;;;;;4966877;28;20485;-85
2023/06/29 02:18:23;;;;;;;1.47;0.90;;;21.10;97.70;;;;;;4965758;28;20496;-85
2023/06/29 02:20:50;;;;;;;1.43;0.90;;;21.10;98.20;;;;;;4966238;28;20466;-84
2023/06/29 02:23:16;;;;;;;1.47;0.90;;;21.00;98.20;;;;;;4967463;28;20482;-86
2023/06/29 02:25:43;;;;;;;1.47;0.90;;;21.00;98.20;;;;;;4965070;28;20462;-85
2023/06/29 02:28:10;;;;;;;1.47;0.90;;;21.00;98.20;;;;;;4969401;28;20457;-85
2023/06/29 02:30:37;;;;;;;1.50;0.90;;;20.90;98.20;;;;;;4970826;28;20466;-86
2023/06/29 02:33:04;;;;;;;1.50;0.90;;;20.90;98.20;;;;;;4968720;28;20493;-85
2023/06/29 02:35:32;;;;;;;1.50;0.90;;;20.90;98.20;;;;;;4964894;28;20462;-85
2023/06/29 02:37:58;;;;;;;1.50;0.90;;;20.90;98.20;;;;;;4965395;28;20505;-86
2023/06/29 02:40:25;;;;;;;1.50;0.90;;;20.90;98.20;;;;;;4968296;28;20550;-86
2023/06/29 02:42:52;;;;;;;1.50;0.90;;;20.80;98.20;;;;;;4966988;28;20507;-86
2023/06/29 02:45:19;;;;;;;1.47;0.90;;;20.80;98.20;;;;;;4968497;28;20680;-86
2023/06/29 02:47:46;;;;;;;1.50;0.90;;;20.80;98.20;;;;;;4963923;28;20904;-86
2023/06/29 02:50:12;;;;;;;1.60;1.23;;;20.80;98.20;;;;;;4966083;28;20988;-85
2023/06/29 02:52:40;;;;;;;1.50;0.90;;;20.80;98.20;;;;;;4965820;28;20485;-86
2023/06/29 02:55:08;;;;;;;1.43;0.90;;;20.90;98.20;;;;;;4966836;28;20466;-85
2023/06/29 02:57:35;;;;;;;1.47;0.90;;;20.90;98.20;;;;;;4966769;28;20935;-85
2023/06/29 03:00:03;;;;;;;1.47;0.90;;;20.90;98.20;;;;;;4966009;28;21038;-85
2023/06/29 03:02:29;;;;;;;1.50;0.90;;;20.90;98.20;;;;;;4970556;28;20868;-86
2023/06/29 03:04:56;;;;;;;1.47;0.90;;;20.90;98.20;;;;;;4963887;28;20539;-85
2023/06/29 03:07:23;;;;;;;1.47;0.90;;;20.90;98.20;;;;;;4978215;28;20466;-86
2023/06/29 03:09:51;;;;;;;1.50;1.20;;;20.80;98.20;;;;;;4973559;28;20462;-86
2023/06/29 03:12:21;;;;;;;1.50;0.90;;;20.80;98.20;;;;;;4968923;28;20472;-85
2023/06/29 03:14:48;;;;;;;1.50;0.90;;;20.80;98.20;;;;;;4971550;28;20957;-85
2023/06/29 03:17:15;;;;;;;1.47;0.90;;;20.70;98.20;;;;;;4969413;28;20468;-85
2023/06/29 03:19:42;;;;;;;1.50;0.90;;;20.60;98.20;;;;;;4970577;28;20497;-86
2023/06/29 03:22:08;;;;;;;1.50;1.20;;;20.60;98.20;;;;;;4969446;28;20775;-85
2023/06/29 03:24:35;;;;;;;1.47;0.90;;;20.60;98.20;;;;;;4979277;28;20603;-85
2023/06/29 03:27:04;;;;;;;1.47;0.90;;;20.60;98.20;;;;;;4970327;28;20466;-86
2023/06/29 03:29:32;;;;;;;1.47;0.90;;;20.60;98.20;;;;;;4970330;28;20481;-86
2023/06/29 03:31:59;;;;;;;1.43;0.90;;;20.60;98.20;;;;;;4971867;28;21130;-87
2023/06/29 03:34:26;;;;;;;1.50;1.00;;;20.60;98.20;;;;;;4972282;28;20859;-86
2023/06/29 03:36:53;;;;;;;1.43;0.90;;;20.60;98.20;;;;;;4972315;28;20791;-85
2023/06/29 03:39:20;;;;;;;1.47;0.90;;;20.70;98.20;;;;;;4970519;28;20492;-88
2023/06/29 03:41:46;;;;;;;1.47;0.90;;;20.70;98.20;;;;;;4971058;28;20776;-85
2023/06/29 03:44:15;;;;;;;1.43;0.90;;;20.70;98.20;;;;;;4970416;28;20482;-86
2023/06/29 03:46:42;;;;;;;1.43;0.90;;;20.80;98.20;;;;;;5003596;23;20600;-86
2023/06/29 03:49:08;;;;;;;1.50;0.90;;;20.80;98.20;;;;;;4992904;28;20575;-86
2023/06/29 03:51:35;;;;;;;1.43;0.90;;;20.80;98.20;;;;;;4992823;28;20556;-86
2023/06/29 03:54:02;;;;;;;1.47;0.90;;;20.80;98.20;;;;;;4991907;28;20552;-86
2023/06/29 03:56:31;;;;;;;1.43;0.90;;;20.70;98.20;;;;;;4993223;28;20480;-86
2023/06/29 03:58:57;;;;;;;1.50;0.90;;;20.80;98.20;;;;;;4990356;28;20494;-86
2023/06/29 04:01:26;;;;;;;1.50;0.90;;;20.80;98.20;;;;;;4992336;28;20516;-87
2023/06/29 04:06:34;;;;;;;1.43;0.90;;;20.70;98.20;;;;;;4993825;28;20976;-86
2023/06/29 04:09:01;;;;;;;1.50;0.90;;;20.70;98.20;;;;;;4995764;28;20461;-87
2023/06/29 04:11:29;;;;;;;1.43;0.90;;;20.70;98.20;;;;;;4996039;28;20495;-86
2023/06/29 04:13:56;;;;;;;1.50;1.00;;;20.60;98.20;;;;;;4992804;28;20552;-86
2023/06/29 04:16:23;;;;;;;1.43;0.90;;;20.70;98.20;;;;;;4994684;28;20551;-87
2023/06/29 04:18:52;;;;;;;1.47;0.90;;;20.70;98.20;;;;;;4993984;28;20501;-87
2023/06/29 04:21:18;;;;;;;1.50;0.90;;;20.70;98.20;;;;;;4994665;28;20519;-87
2023/06/29 04:23:46;;;;;;;1.43;0.90;;;20.70;98.20;;;;;;4994529;28;20512;-86
2023/06/29 04:26:13;;;;;;;1.47;0.90;;;20.80;98.20;;;;;;4992771;28;20457;-87
2023/06/29 04:28:49;;;;;;;1.47;0.90;;;20.90;98.20;;;;;;4991228;28;20461;-86
2023/06/29 04:31:16;;;;;;;1.43;0.90;;;20.90;98.20;;;;;;4992460;28;20552;-86
2023/06/29 04:33:54;;;;;;;1.50;0.90;;;20.90;98.20;;;;;;4991246;28;20465;-87
2023/06/29 04:36:21;;;;;;;1.47;0.90;;;20.90;98.20;;;;;;4990641;28;20460;-87
2023/06/29 04:39:03;;;;;;;1.50;0.90;;;20.90;98.20;;;;;;4992099;28;20484;-86
2023/06/29 04:41:36;;;;;;;1.50;1.00;;;20.90;98.20;;;;;;4991232;28;20576;-86
2023/06/29 04:44:12;;;;;;;1.47;0.90;;;21.00;98.20;;;;;;4983793;28;21111;-86
2023/06/29 04:46:47;;;;;;;1.47;0.90;;;21.00;98.20;;;;;;4988007;28;21530;-87
2023/06/29 04:49:16;;;;;;;1.43;0.90;;;21.00;98.20;;;;;;4994113;28;20547;-86
2023/06/29 04:51:48;;;;;;;1.50;0.90;;;21.00;98.20;;;;;;4992850;28;20568;-86
2023/06/29 04:54:15;;;;;;;1.43;0.87;;;21.00;98.20;;;;;;4992593;28;20495;-87
2023/06/29 04:57:07;;;;;;;1.43;0.90;;;21.00;98.20;;;;;;4993050;28;20488;-86
2023/06/29 04:59:47;;;;;;;1.47;0.90;;;21.10;98.20;;;;;;4996926;28;20508;-88
2023/06/29 05:02:14;;;;;;;1.50;0.90;;;21.10;98.20;;;;;;5001935;28;20505;-86
2023/06/29 05:04:45;;;;;;;1.50;0.90;;;21.20;98.20;;;;;;4994291;28;20470;-87
2023/06/29 05:07:13;;;;;;;1.43;0.90;;;21.20;98.20;;;;;;4990748;28;20802;-87
2023/06/29 05:09:40;;;;;;;1.43;0.90;;;21.30;98.20;;;;;;4989886;28;20465;-86
2023/06/29 05:12:09;;;;;;;1.50;0.90;;;21.30;98.20;;;;;;4988997;28;20461;-86
2023/06/29 05:14:36;;;;;;;1.50;0.90;;;21.40;98.20;;;;;;4990785;28;20515;-86
2023/06/29 05:17:04;;;;;;;1.47;0.90;;;21.40;98.20;;;;;;4990471;28;20489;-86
2023/06/29 05:19:32;;;;;;;1.50;0.90;;;21.30;98.20;;;;;;4992072;28;21003;-86
2023/06/29 05:22:10;;;;;;;3.50;3.20;;;21.30;98.20;;;;;;4991902;28;21072;-86
2023/06/29 05:24:38;;;;;;;1.47;0.90;;;21.40;98.20;;;;;;4998546;28;20465;-87
2023/06/29 05:27:05;;;;;;;1.47;0.90;;;21.50;98.20;;;;;;4989379;28;20627;-87
2023/06/29 05:29:32;;;;;;;1.50;0.90;;;21.50;98.20;;;;;;4991010;28;20473;-87
2023/06/29 05:31:59;;;;;;;1.50;0.90;;;21.50;98.20;;;;;;4992286;28;20595;-85
2023/06/29 05:34:26;;;;;;;1.47;0.90;;;21.50;98.20;;;;;;4990869;28;20712;-84
2023/06/29 05:36:53;;;;;;;1.50;0.90;;;21.50;98.20;;;;;;4988605;28;20481;-85
2023/06/29 05:39:21;;;;;;;1.50;0.90;;;21.60;98.20;;;;;;4991132;28;20493;-85
2023/06/29 05:41:49;;;;;;;1.47;0.90;;;21.60;98.20;;;;;;4990520;28;20544;-84
2023/06/29 05:44:15;;;;;;;1.50;0.90;;;21.60;98.20;;;;;;4989053;28;20843;-85
2023/06/29 05:46:42;;;;;;;1.50;0.90;;;21.60;98.20;;;;;;4990450;28;20506;-83
2023/06/29 05:49:09;;;;;;;1.50;1.00;;;21.50;98.20;;;;;;4988768;28;20484;-85
2023/06/29 05:51:37;;;;;;;1.50;0.90;;;21.50;98.20;;;;;;4995168;28;20468;-83
2023/06/29 05:54:38;;;;;;;1.47;1.00;;;21.60;98.20;;;;;;5000388;28;20537;-84
2023/06/29 05:57:09;;;;;;;1.63;1.40;;;21.60;98.20;;;;;;4988366;28;21206;-82
2023/06/29 05:59:36;;;;;;;1.50;0.90;;;21.60;98.20;;;;;;4987592;28;20509;-85
2023/06/29 06:02:25;;;;;;;1.43;0.90;;;21.60;98.20;;;;;;4991277;28;20515;-83
2023/06/29 06:08:10;;;;;;;1.47;0.90;;;21.60;98.20;;;;;;4981042;28;20557;-83
2023/06/29 06:10:39;;;;;;;1.43;0.90;;;21.60;98.20;;;;;;4982730;28;20476;-83
2023/06/29 06:20:14;;;;;;;1.50;0.90;;;21.70;98.20;;;;;;4928940;29;20659;-83
2023/06/29 06:22:40;;;;;;;1.50;0.90;;;21.80;98.20;;;;;;4938526;28;20891;-82
2023/06/29 06:25:08;;;;;;;1.50;0.90;;;21.90;98.20;;;;;;4992206;28;20465;-83
2023/06/29 06:27:37;;;;;;;1.43;0.90;;;22.10;98.20;;;;;;4991792;28;20523;-83
2023/06/29 06:30:04;;;;;;;1.50;0.90;;;22.20;98.20;;;;;;4991522;28;20480;-83
2023/06/29 06:32:31;;;;;;;1.50;0.90;;;22.30;98.20;;;;;;4990728;28;20818;-82
2023/06/29 06:34:59;;;;;;;1.43;0.90;;;22.30;97.70;;;;;;4991109;28;20461;-83
2023/06/29 06:37:54;;;;;;;1.50;0.90;;;22.30;97.60;;;;;;4995911;28;20484;-83
2023/06/29 06:40:21;;;;;;;1.40;0.80;;;22.40;97.70;;;;;;4995573;28;20552;-83
2023/06/29 06:42:50;;;;;;;1.50;0.90;;;22.40;97.20;;;;;;4995194;28;20552;-83
2023/06/29 06:45:16;;;;;;;1.50;0.90;;;22.50;97.20;;;;;;4992441;28;20492;-81
2023/06/29 06:47:43;;;;;;;1.50;0.90;;;22.50;97.20;;;;;;4987794;28;20563;-82
2023/06/29 06:50:11;;;;;;;1.50;0.90;;;22.60;96.70;;;;;;4988511;28;20476;-83
2023/06/29 06:52:38;;;;;;;1.50;0.90;;;22.60;96.30;;;;;;4993469;28;20472;-83
2023/06/29 06:55:06;;;;;;;1.50;0.90;;;22.70;96.40;;;;;;4992718;28;20472;-82
2023/06/29 06:57:32;;;;;;;1.47;0.90;;;22.70;95.90;;;;;;4991458;28;20489;-84
2023/06/29 07:00:01;;;;;;;1.50;0.87;;;22.70;96.60;;;;;;4989027;28;20591;-82
2023/06/29 07:02:28;;;;;;;1.47;0.90;;;22.80;96.40;;;;;;4990985;28;20524;-82
2023/06/29 07:04:56;;;;;;;1.47;0.90;;;22.90;96.10;;;;;;4989468;28;20961;-83
2023/06/29 07:07:23;;;;;;;1.50;0.90;;;23.00;96.20;;;;;;4990477;28;20578;-83
2023/06/29 07:09:50;;;;;;;1.47;0.90;;;23.10;96.00;;;;;;4988768;28;20497;-83
2023/06/29 07:12:17;;;;;;;1.50;0.90;;;23.20;95.70;;;;;;4993826;28;20477;-82
2023/06/29 07:14:45;;;;;;;1.47;0.90;;;23.20;95.00;;;;;;4992275;28;20516;-84
2023/06/29 07:17:14;;;;;;;1.47;0.90;;;23.30;94.90;;;;;;4983686;28;20870;-83
2023/06/29 07:19:41;;;;;;;1.50;0.90;;;23.40;94.80;;;;;;4990143;28;20489;-83
2023/06/29 07:22:46;;;;;;;1.50;0.90;;;23.60;94.60;;;;;;4989364;28;20465;-81
2023/06/29 07:25:14;;;;;;;1.50;0.80;;;23.70;94.70;;;;;;4981909;28;20483;-82
2023/06/29 07:30:45;;;;;;;1.50;0.80;;;24.20;93.00;;;;;;4956889;28;20457;-81
2023/06/29 07:33:13;;;;;;;1.47;0.90;;;24.30;93.10;;;;;;4988233;28;20551;-84
2023/06/29 07:35:42;;;;;;;1.47;0.80;;;24.50;93.50;;;;;;4989019;28;20472;-85
2023/06/29 07:38:09;;;;;;;1.50;0.90;;;24.60;93.00;;;;;;4986264;28;20485;-84
2023/06/29 07:40:35;;;;;;;1.50;0.80;;;24.70;92.30;;;;;;4991447;28;20531;-83
2023/06/29 07:43:02;;;;;;;1.50;0.90;;;24.80;91.60;;;;;;4983711;28;20491;-84
2023/06/29 07:45:29;;;;;;;1.50;0.90;;;24.80;91.80;;;;;;4985867;28;20469;-82
2023/06/29 07:47:58;;;;;;;1.47;0.90;;;24.80;91.80;;;;;;4981956;28;20496;-83
2023/06/29 07:50:26;;;;;;;1.47;0.87;;;24.80;91.80;;;;;;4989159;28;20862;-83
2023/06/29 07:52:53;;;;;;;1.50;0.90;;;24.80;91.70;;;;;;4987892;28;20464;-84
2023/06/29 07:55:20;;;;;;;1.47;0.90;;;24.70;91.80;;;;;;4986903;28;20472;-85
2023/06/29 07:57:47;;;;;;;1.50;0.80;;;24.70;92.50;;;;;;4985006;28;20639;-82
2023/06/29 08:00:18;;;;;;;1.50;0.90;;;24.70;91.80;;;;;;4989661;28;20476;-83
2023/06/29 08:02:56;;;;;;;1.47;0.90;;;24.60;91.80;;;;;;4989195;28;20713;-82
2023/06/29 08:08:54;;;;;;;1.50;0.80;;;24.60;92.70;;;;;;4979397;28;20520;-82
2023/06/29 08:11:26;;;;;;;1.43;0.80;;;24.50;92.40;;;;;;4990905;28;20461;-83
2023/06/29 08:13:53;;;;;;;1.43;0.80;;;24.40;92.40;;;;;;4992231;28;20457;-83
2023/06/29 08:16:21;;;;;;;1.43;0.90;;;24.50;92.40;;;;;;4990657;28;20457;-82
2023/06/29 08:18:48;;;;;;;1.47;0.80;;;24.60;93.10;;;;;;4990589;28;20845;-83
2023/06/29 08:21:15;;;;;;;1.50;0.87;;;24.70;92.50;;;;;;4988903;28;20580;-82
2023/06/29 08:23:42;;;;;;;1.50;0.90;;;24.80;92.50;;;;;;4986923;28;20492;-82
2023/06/29 08:26:24;;;;;;;1.50;0.90;;;24.80;92.70;;;;;;4991282;28;20457;-84
2023/06/29 08:29:38;;;;;;;1.47;0.90;;;24.80;92.40;;;;;;4988812;28;20501;-85
2023/06/29 08:32:07;;;;;;;1.50;0.90;;;24.90;92.20;;;;;;4986642;28;20547;-85
2023/06/29 08:34:37;;;;;;;1.50;0.90;;;24.90;92.20;;;;;;4987019;28;20487;-84
2023/06/29 08:37:07;;;;;;;1.47;0.90;;;24.90;92.10;;;;;;4985870;28;20568;-84
2023/06/29 08:40:08;;;;;;;1.50;0.87;;;24.90;92.80;;;;;;4991792;28;20938;-87
2023/06/29 08:42:45;;;;;;;1.43;0.80;;;25.00;92.10;;;;;;4986251;28;20468;-84
2023/06/29 08:45:14;;;;;;;1.47;0.90;;;24.90;92.30;;;;;;4989699;28;20920;-85
2023/06/29 08:47:49;;;;;;;1.47;0.80;;;24.90;92.30;;;;;;4985883;28;20496;-85
2023/06/29 08:50:20;;;;;;;1.47;0.90;;;24.90;92.50;;;;;;4993314;28;20528;-87
2023/06/29 08:55:39;;;;;;;1.47;0.87;;;25.00;92.70;;;;;;4956958;28;20469;-84
2023/06/29 08:58:29;;;;;;;1.43;0.80;;;25.10;92.30;;;;;;4985612;28;20477;-86
2023/06/29 09:00:57;;;;;;;1.47;0.80;;;25.10;92.20;;;;;;4992089;28;20496;-86
2023/06/29 09:03:25;;;;;;;1.47;0.90;;;25.10;93.30;;;;;;4986152;28;20465;-85
2023/06/29 09:06:08;;;;;;;1.50;0.90;;;25.20;93.00;;;;;;4988179;28;20469;-85
2023/06/29 09:08:37;;;;;;;1.50;0.80;;;25.30;92.30;;;;;;4986544;28;20471;-86
2023/06/29 09:11:03;;;;;;;1.47;0.90;;;25.40;92.10;;;;;;4987101;28;20508;-83
2023/06/29 09:13:33;;;;;;;1.50;1.10;;;25.50;92.20;;;;;;4987351;28;20556;-87
2023/06/29 09:16:01;;;;;;;1.50;0.90;;;25.60;92.10;;;;;;4987562;28;20552;-87
2023/06/29 09:18:28;;;;;;;1.43;0.83;;;25.80;91.80;;;;;;4988711;28;20481;-85
2023/06/29 09:20:56;;;;;;;1.40;0.83;;;25.90;91.60;;;;;;4994192;28;20493;-82
2023/06/29 09:23:43;;;;;;;1.47;0.90;;;26.00;90.90;;;;;;5003510;28;20457;-86
2023/06/29 09:26:22;;;;;;;1.50;0.80;;;26.20;90.30;;;;;;4991709;28;20544;-84
2023/06/29 09:28:59;;;;;;;1.50;1.07;;;26.30;89.90;;;;;;4987089;28;20492;-83
2023/06/29 09:31:32;;;;;;;1.40;0.90;;;26.50;89.90;;;;;;4987078;28;20472;-83
2023/06/29 09:37:28;;;;;;;1.80;1.43;;;26.90;88.70;;;;;;4934946;28;20555;-85
2023/06/29 09:39:59;;;;;;;1.47;0.80;;;27.10;88.00;;;;;;4972477;28;20551;-85
2023/06/29 09:42:29;;;;;;;1.50;0.90;;;27.20;87.60;;;;;;4986917;28;21181;-85
2023/06/29 09:45:02;;;;;;;1.40;0.80;;;27.20;87.90;;;;;;4987577;28;20835;-85
2023/06/29 09:47:30;;;;;;;1.50;0.80;;;27.40;87.20;;;;;;4987426;28;20587;-85
2023/06/29 09:49:57;;;;;;;1.50;0.80;;;27.60;87.50;;;;;;4987347;28;20564;-84
2023/06/29 09:52:24;;;;;;;1.47;0.80;;;27.70;86.50;;;;;;4987183;28;20468;-88
2023/06/29 09:54:58;;;;;;;1.50;1.00;;;27.90;86.50;;;;;;4988477;28;20476;-86
2023/06/29 09:57:28;;;;;;;1.47;0.80;;;28.20;85.60;;;;;;4984793;28;20496;-83
2023/06/29 09:59:55;;;;;;;1.50;0.80;;;28.50;83.40;;;;;;4986868;28;20927;-83
2023/06/29 10:02:24;;;;;;;1.50;0.80;;;28.70;83.60;;;;;;4981295;28;20498;-85
2023/06/29 10:04:57;;;;;;;1.47;0.80;;;28.80;82.30;;;;;;4984925;28;20479;-84
2023/06/29 10:07:31;;;;;;;1.53;0.90;;;28.80;82.10;;;;;;4985930;28;20837;-85
2023/06/29 10:09:59;;;;;;;1.47;0.80;;;28.80;83.00;;;;;;4989236;28;20472;-84
2023/06/29 10:12:28;;;;;;;1.47;0.80;;;28.90;83.60;;;;;;4983244;28;20468;-85
2023/06/29 10:14:59;;;;;;;1.43;0.80;;;28.90;82.30;;;;;;4989459;28;20468;-84
2023/06/29 10:17:35;;;;;;;1.50;0.80;;;28.80;83.20;;;;;;4983995;28;20493;-83
2023/06/29 10:20:04;;;;;;;1.43;0.80;;;28.90;81.90;;;;;;4984621;28;20929;-83
2023/06/29 10:22:32;;;;;;;1.60;1.20;;;29.00;81.90;;;;;;4987337;28;20484;-83
2023/06/29 10:25:18;;;;;;;1.50;0.80;;;29.30;84.00;;;;;;4989573;28;20499;-84
2023/06/29 10:27:51;;;;;;;1.50;0.80;;;29.60;80.20;;;;;;4988882;28;20863;-84
2023/06/29 10:30:20;;;;;;;1.50;0.80;;;29.80;81.70;;;;;;4985443;28;20465;-85
2023/06/29 10:32:53;;;;;;;1.43;0.80;;;29.90;80.80;;;;;;4984387;28;20468;-84
2023/06/29 10:35:23;;;;;;;1.47;0.80;;;30.00;80.30;;;;;;4981185;28;20530;-84
2023/06/29 10:37:51;;;;;;;1.47;0.80;;;30.00;80.00;;;;;;4986386;28;20489;-83
2023/06/29 10:40:20;;;;;;;1.47;0.80;;;30.10;80.40;;;;;;4985427;28;20951;-84
2023/06/29 10:42:55;;;;;;;1.50;0.80;;;30.00;79.30;;;;;;4980718;28;20496;-84
2023/06/29 10:45:32;;;;;;;1.43;0.80;;;30.00;80.70;;;;;;4981411;28;20573;-85
2023/06/29 10:48:10;;;;;;;1.47;0.80;;;30.10;79.20;;;;;;4982586;28;21127;-84
2023/06/29 10:50:42;;;;;;;1.43;0.80;;;30.10;79.40;;;;;;4981926;28;20468;-84
2023/06/29 10:53:11;;;;;;;1.50;0.80;;;30.00;79.70;;;;;;4983821;28;20493;-84
2023/06/29 10:55:40;;;;;;;1.80;1.43;;;29.90;80.10;;;;;;4984448;28;21122;-84
2023/06/29 10:58:14;;;;;;;1.47;0.80;;;29.80;81.40;;;;;;4984502;28;20527;-85
2023/06/29 11:00:42;;;;;;;1.43;0.80;;;29.80;81.60;;;;;;4986017;28;20907;-85
2023/06/29 11:03:11;;;;;;;1.60;1.37;;;29.60;81.70;;;;;;4982412;28;20556;-84
2023/06/29 11:05:38;;;;;;;1.50;0.90;;;29.60;81.90;;;;;;4983748;28;20514;-84
2023/06/29 11:08:17;;;;;;;1.43;0.80;;;29.50;79.90;;;;;;4980940;28;20492;-85
2023/06/29 11:10:48;;;;;;;1.47;0.90;;;29.50;80.90;;;;;;4983709;28;20464;-85
2023/06/29 11:13:15;;;;;;;1.47;0.80;;;29.40;81.30;;;;;;4984605;28;20978;-85
2023/06/29 11:15:42;;;;;;;1.43;0.80;;;29.30;81.30;;;;;;4984643;28;21031;-85
2023/06/29 11:18:49;;;;;;;1.43;0.80;;;29.20;81.90;;;;;;4982039;28;20527;-85
2023/06/29 11:21:16;;;;;;;1.50;0.80;;;29.10;81.70;;;;;;4916778;29;20776;-86
2023/06/29 11:24:13;;;;;;;1.50;0.80;;;29.00;81.00;;;;;;4918553;29;20527;-86
2023/06/29 11:26:43;;;;;;;1.47;0.80;;;28.90;81.40;;;;;;4971828;28;20587;-85
2023/06/29 11:29:10;;;;;;;1.47;0.80;;;28.70;82.90;;;;;;5004683;28;20862;-84
2023/06/29 11:31:37;;;;;;;1.50;0.80;;;28.60;82.50;;;;;;4999045;28;20456;-85
2023/06/29 11:34:05;;;;;;;1.50;0.90;;;28.50;82.10;;;;;;4989908;28;20468;-85
2023/06/29 11:39:09;;;;;;;2.77;1.37;;;28.30;82.30;;;;;;5455858;22;20493;-85
2023/06/29 11:41:37;;;;;;;1.50;0.80;;;28.30;82.70;;;;;;4973061;28;20501;-86
2023/06/29 11:44:05;;;;;;;1.47;0.80;;;28.20;82.60;;;;;;4972805;28;20927;-87
2023/06/29 11:46:35;;;;;;;1.50;0.80;;;28.20;82.80;;;;;;4969654;28;20493;-85
2023/06/29 11:49:05;;;;;;;1.47;0.80;;;28.20;82.40;;;;;;4965229;28;21065;-85
2023/06/29 11:51:33;;;;;;;1.50;1.00;;;28.30;84.10;;;;;;4963018;28;20462;-88
2023/06/29 11:54:01;;;;;;;1.50;0.80;;;28.40;83.00;;;;;;4960228;28;20842;-86
2023/06/29 11:56:35;;;;;;;1.47;0.80;;;28.30;82.90;;;;;;4958511;28;20494;-87
2023/06/29 11:59:15;;;;;;;1.47;0.80;;;28.30;83.30;;;;;;4955536;28;20807;-84
2023/06/29 12:01:43;;;;;;;1.50;0.80;;;28.30;83.80;;;;;;4958986;28;20498;-85
2023/06/29 12:04:12;;;;;;;1.47;0.80;;;28.30;83.50;;;;;;4960885;28;20532;-86
2023/06/29 12:06:51;;;;;;;1.43;0.80;;;28.40;83.80;;;;;;4961006;28;21051;-87
2023/06/29 12:09:18;;;;;;;1.50;1.10;;;28.40;84.00;;;;;;4963375;28;20460;-85
2023/06/29 12:11:45;;;;;;;1.47;0.80;;;28.30;83.20;;;;;;4963300;28;20472;-86
2023/06/29 12:14:12;;;;;;;1.47;0.80;;;28.20;83.30;;;;;;4964555;28;20466;-86
2023/06/29 12:16:40;;;;;;;1.50;0.90;;;28.20;83.30;;;;;;4964289;28;21052;-86
2023/06/29 12:19:12;;;;;;;1.50;0.80;;;28.20;83.70;;;;;;4968189;28;20630;-86
2023/06/29 12:21:39;;;;;;;1.47;0.80;;;28.20;84.40;;;;;;4965954;28;20498;-86
2023/06/29 12:24:06;;;;;;;1.50;0.80;;;28.10;84.20;;;;;;4965453;28;20552;-87
2023/06/29 12:26:33;;;;;;;1.50;0.87;;;28.00;85.00;;;;;;4966724;28;20525;-85
2023/06/29 12:29:00;;;;;;;1.50;0.80;;;27.90;84.50;;;;;;4970353;28;20464;-85
2023/06/29 12:31:27;;;;;;;1.50;0.90;;;27.90;85.00;;;;;;4966646;28;20469;-86
2023/06/29 12:33:54;;;;;;;1.50;0.90;;;27.80;85.80;;;;;;4970690;28;20469;-86
2023/06/29 12:36:22;;;;;;;1.50;0.90;;;27.70;85.00;;;;;;4976970;28;20471;-85
2023/06/29 12:39:24;;;;;;;1.43;0.80;;;27.60;85.60;;;;;;4973039;28;20472;-83
2023/06/29 12:41:55;;;;;;;1.47;0.80;;;27.60;85.60;;;;;;4965259;28;20480;-87
2023/06/29 12:44:22;;;;;;;1.47;0.80;;;27.60;85.70;;;;;;4965417;28;20490;-86
2023/06/29 12:46:49;;;;;;;1.50;0.80;;;27.60;86.40;;;;;;4976217;28;20484;-84
2023/06/29 12:49:15;;;;;;;1.50;0.80;;;27.60;86.40;;;;;;4976211;28;20469;-86
2023/06/29 12:51:44;;;;;;;1.47;0.80;;;27.60;86.10;;;;;;4973935;28;20732;-86
2023/06/29 12:54:10;;;;;;;1.47;0.80;;;27.50;86.50;;;;;;4980443;28;20468;-85
2023/06/29 12:56:39;;;;;;;1.50;0.80;;;27.50;86.10;;;;;;4975804;28;20531;-85
2023/06/29 12:59:06;;;;;;;1.50;0.90;;;27.50;86.70;;;;;;4978455;28;20474;-84
2023/06/29 13:01:33;;;;;;;1.47;0.80;;;27.40;86.10;;;;;;4975745;28;20551;-84
2023/06/29 13:04:19;;;;;;;1.43;0.90;;;27.30;86.50;;;;;;4961931;28;20566;-84
2023/06/29 13:06:47;;;;;;;1.50;0.90;;;27.20;87.00;;;;;;4955081;28;20514;-84
2023/06/29 13:09:14;;;;;;;1.50;1.00;;;27.20;87.60;;;;;;4957878;28;20473;-84
2023/06/29 13:11:44;;;;;;;1.50;0.80;;;27.10;87.40;;;;;;4961621;28;20847;-84
2023/06/29 13:14:11;;;;;;;1.47;0.80;;;27.00;87.90;;;;;;4963046;28;20462;-83
2023/06/29 13:16:38;;;;;;;1.50;0.90;;;26.90;88.20;;;;;;4959958;28;20486;-84
2023/06/29 13:19:07;;;;;;;1.47;0.87;;;26.80;88.40;;;;;;4960728;28;20471;-83
2023/06/29 13:22:09;;;;;;;1.47;0.80;;;26.70;88.60;;;;;;4962365;28;20490;-84
2023/06/29 13:24:38;;;;;;;1.50;0.80;;;26.70;89.50;;;;;;4954540;28;20474;-84
2023/06/29 13:27:06;;;;;;;1.43;0.80;;;26.60;89.50;;;;;;4964984;28;21017;-85
2023/06/29 13:29:35;;;;;;;2.90;2.70;;;26.60;89.50;;;;;;4976481;28;20526;-83